sensor_id;sensor_type;location;lat;lon;timestamp;pressure;altitude;pressure_sealevel;temperature;humidity
52855;BME280;38719;51.418;7.286;2023-03-13T00:02:03;98669.00;;;10.19;68.07
52855;BME280;38719;51.418;7.286;2023-03-13T00:04:30;98673.16;;;10.23;67.91
52855;BME280;38719;51.418;7.286;2023-03-13T00:06:58;98654.41;;;10.24;67.98
52855;BME280;38719;51.418;7.286;2023-03-13T00:09:25;98662.91;;;10.16;68.42
52855;BME280;38719;51.418;7.286;2023-03-13T00:11:53;98653.88;;;10.05;68.57
52855;BME280;38719;51.418;7.286;2023-03-13T00:14:20;98654.63;;;10.21;68.42
52855;BME280;38719;51.418;7.286;2023-03-13T00:16:49;98652.72;;;10.23;68.38
52855;BME280;38719;51.418;7.286;2023-03-13T00:19:17;98647.09;;;10.42;67.76
52855;BME280;38719;51.418;7.286;2023-03-13T00:21:44;98652.13;;;10.47;67.56
52855;BME280;38719;51.418;7.286;2023-03-13T00:24:12;98635.41;;;10.30;68.35
52855;BME280;38719;51.418;7.286;2023-03-13T00:26:40;98631.44;;;10.38;67.97
52855;BME280;38719;51.418;7.286;2023-03-13T00:29:07;98624.94;;;10.42;68.46
52855;BME280;38719;51.418;7.286;2023-03-13T00:31:34;98628.25;;;10.45;68.18
52855;BME280;38719;51.418;7.286;2023-03-13T00:34:03;98621.97;;;10.46;68.78
52855;BME280;38719;51.418;7.286;2023-03-13T00:36:32;98618.66;;;10.43;69.47
52855;BME280;38719;51.418;7.286;2023-03-13T00:39:01;98613.81;;;10.35;70.08
52855;BME280;38719;51.418;7.286;2023-03-13T00:41:31;98611.25;;;10.33;70.03
52855;BME280;38719;51.418;7.286;2023-03-13T00:43:59;98603.63;;;10.14;71.60
52855;BME280;38719;51.418;7.286;2023-03-13T00:46:28;98596.91;;;10.09;71.86
52855;BME280;38719;51.418;7.286;2023-03-13T00:48:56;98592.38;;;10.24;71.19
52855;BME280;38719;51.418;7.286;2023-03-13T00:51:26;98589.59;;;10.12;71.90
52855;BME280;38719;51.418;7.286;2023-03-13T00:53:53;98579.09;;;10.24;71.59
52855;BME280;38719;51.418;7.286;2023-03-13T00:56:21;98569.56;;;10.20;72.02
52855;BME280;38719;51.418;7.286;2023-03-13T00:58:49;98564.47;;;10.16;72.19
52855;BME280;38719;51.418;7.286;2023-03-13T01:01:18;98563.41;;;10.19;71.80
52855;BME280;38719;51.418;7.286;2023-03-13T01:03:48;98558.47;;;10.27;72.07
52855;BME280;38719;51.418;7.286;2023-03-13T01:06:18;98549.72;;;10.25;72.18
52855;BME280;38719;51.418;7.286;2023-03-13T01:08:48;98547.59;;;10.30;72.21
52855;BME280;38719;51.418;7.286;2023-03-13T01:11:18;98551.19;;;10.16;73.39
52855;BME280;38719;51.418;7.286;2023-03-13T01:13:46;98539.06;;;10.25;73.25
52855;BME280;38719;51.418;7.286;2023-03-13T01:16:16;98527.19;;;10.31;73.58
52855;BME280;38719;51.418;7.286;2023-03-13T01:18:46;98519.50;;;10.26;73.56
52855;BME280;38719;51.418;7.286;2023-03-13T01:21:15;98505.16;;;10.02;74.55
52855;BME280;38719;51.418;7.286;2023-03-13T01:23:46;98499.97;;;10.13;74.68
52855;BME280;38719;51.418;7.286;2023-03-13T01:26:15;98495.19;;;10.18;74.61
52855;BME280;38719;51.418;7.286;2023-03-13T01:28:43;98477.88;;;10.25;74.67
52855;BME280;38719;51.418;7.286;2023-03-13T01:31:12;98474.28;;;10.26;74.70
52855;BME280;38719;51.418;7.286;2023-03-13T01:33:40;98478.22;;;10.33;74.44
52855;BME280;38719;51.418;7.286;2023-03-13T01:36:08;98481.50;;;10.24;74.53
52855;BME280;38719;51.418;7.286;2023-03-13T01:38:36;98485.50;;;10.17;75.52
52855;BME280;38719;51.418;7.286;2023-03-13T01:41:04;98476.66;;;10.04;76.93
52855;BME280;38719;51.418;7.286;2023-03-13T01:43:35;98468.94;;;9.86;78.80
52855;BME280;38719;51.418;7.286;2023-03-13T01:46:09;98458.50;;;9.83;78.58
52855;BME280;38719;51.418;7.286;2023-03-13T01:48:45;98442.56;;;9.83;78.69
52855;BME280;38719;51.418;7.286;2023-03-13T01:51:17;98448.31;;;9.90;78.87
52855;BME280;38719;51.418;7.286;2023-03-13T01:53:49;98431.69;;;9.73;79.33
52855;BME280;38719;51.418;7.286;2023-03-13T01:56:19;98439.59;;;9.88;78.88
52855;BME280;38719;51.418;7.286;2023-03-13T01:58:51;98426.38;;;9.86;79.27
52855;BME280;38719;51.418;7.286;2023-03-13T02:01:19;98426.59;;;9.83;79.25
52855;BME280;38719;51.418;7.286;2023-03-13T02:03:48;98409.00;;;9.67;80.43
52855;BME280;38719;51.418;7.286;2023-03-13T02:06:16;98412.13;;;9.74;80.75
52855;BME280;38719;51.418;7.286;2023-03-13T02:08:48;98407.66;;;9.75;80.55
52855;BME280;38719;51.418;7.286;2023-03-13T02:11:28;98392.72;;;9.99;79.91
52855;BME280;38719;51.418;7.286;2023-03-13T02:13:58;98398.53;;;9.92;80.24
52855;BME280;38719;51.418;7.286;2023-03-13T02:16:26;98392.75;;;9.72;81.58
52855;BME280;38719;51.418;7.286;2023-03-13T02:18:55;98373.19;;;9.73;81.61
52855;BME280;38719;51.418;7.286;2023-03-13T02:21:31;98366.94;;;9.74;81.60
52855;BME280;38719;51.418;7.286;2023-03-13T02:24:10;98358.72;;;9.64;82.16
52855;BME280;38719;51.418;7.286;2023-03-13T02:26:41;98357.78;;;9.78;81.87
52855;BME280;38719;51.418;7.286;2023-03-13T02:29:09;98354.78;;;9.70;82.46
52855;BME280;38719;51.418;7.286;2023-03-13T02:31:45;98347.22;;;9.64;83.13
52855;BME280;38719;51.418;7.286;2023-03-13T02:34:14;98331.31;;;9.77;82.54
52855;BME280;38719;51.418;7.286;2023-03-13T02:36:44;98320.56;;;9.65;83.42
52855;BME280;38719;51.418;7.286;2023-03-13T02:39:15;98320.56;;;9.65;83.82
52855;BME280;38719;51.418;7.286;2023-03-13T02:41:46;98307.03;;;9.56;83.89
52855;BME280;38719;51.418;7.286;2023-03-13T02:44:14;98304.59;;;9.65;83.77
52855;BME280;38719;51.418;7.286;2023-03-13T02:46:43;98300.44;;;9.61;84.07
52855;BME280;38719;51.418;7.286;2023-03-13T02:49:23;98298.34;;;9.66;83.99
52855;BME280;38719;51.418;7.286;2023-03-13T02:51:52;98291.94;;;9.56;84.41
52855;BME280;38719;51.418;7.286;2023-03-13T02:54:22;98302.53;;;9.43;84.95
52855;BME280;38719;51.418;7.286;2023-03-13T02:56:54;98293.53;;;9.59;85.04
52855;BME280;38719;51.418;7.286;2023-03-13T02:59:24;98295.13;;;9.61;85.26
52855;BME280;38719;51.418;7.286;2023-03-13T03:01:51;98283.44;;;9.64;85.06
52855;BME280;38719;51.418;7.286;2023-03-13T03:04:20;98286.66;;;9.69;84.81
52855;BME280;38719;51.418;7.286;2023-03-13T03:06:48;98286.31;;;9.74;84.56
52855;BME280;38719;51.418;7.286;2023-03-13T03:09:16;98282.94;;;9.72;84.42
52855;BME280;38719;51.418;7.286;2023-03-13T03:11:43;98282.69;;;9.75;84.75
52855;BME280;38719;51.418;7.286;2023-03-13T03:14:13;98274.84;;;9.86;84.42
52855;BME280;38719;51.418;7.286;2023-03-13T03:16:40;98270.28;;;9.88;84.34
52855;BME280;38719;51.418;7.286;2023-03-13T03:19:08;98258.13;;;9.71;85.46
52855;BME280;38719;51.418;7.286;2023-03-13T03:21:36;98254.94;;;9.53;86.57
52855;BME280;38719;51.418;7.286;2023-03-13T03:24:05;98250.38;;;9.68;86.24
52855;BME280;38719;51.418;7.286;2023-03-13T03:26:33;98244.19;;;9.67;86.06
52855;BME280;38719;51.418;7.286;2023-03-13T03:29:00;98256.13;;;9.75;86.35
52855;BME280;38719;51.418;7.286;2023-03-13T03:31:29;98246.13;;;9.65;86.76
52855;BME280;38719;51.418;7.286;2023-03-13T03:33:57;98236.75;;;9.60;87.64
52855;BME280;38719;51.418;7.286;2023-03-13T03:36:25;98250.91;;;9.73;86.86
52855;BME280;38719;51.418;7.286;2023-03-13T03:38:53;98248.78;;;9.65;87.28
52855;BME280;38719;51.418;7.286;2023-03-13T03:41:20;98238.25;;;9.51;88.42
52855;BME280;38719;51.418;7.286;2023-03-13T03:43:48;98234.75;;;9.63;88.24
52855;BME280;38719;51.418;7.286;2023-03-13T03:46:15;98234.31;;;9.70;87.65
52855;BME280;38719;51.418;7.286;2023-03-13T03:48:44;98236.88;;;9.84;87.54
52855;BME280;38719;51.418;7.286;2023-03-13T03:51:12;98239.63;;;9.70;87.96
52855;BME280;38719;51.418;7.286;2023-03-13T03:53:39;98220.94;;;9.84;87.25
52855;BME280;38719;51.418;7.286;2023-03-13T03:56:07;98221.78;;;9.84;86.75
52855;BME280;38719;51.418;7.286;2023-03-13T03:58:34;98240.94;;;9.77;87.27
52855;BME280;38719;51.418;7.286;2023-03-13T04:01:02;98220.06;;;9.83;87.70
52855;BME280;38719;51.418;7.286;2023-03-13T04:03:30;98222.63;;;9.98;86.76
52855;BME280;38719;51.418;7.286;2023-03-13T04:05:59;98225.63;;;9.80;87.59
52855;BME280;38719;51.418;7.286;2023-03-13T04:08:27;98225.81;;;9.90;87.49
52855;BME280;38719;51.418;7.286;2023-03-13T04:10:54;98230.50;;;9.99;87.04
52855;BME280;38719;51.418;7.286;2023-03-13T04:13:21;98224.75;;;10.06;86.70
52855;BME280;38719;51.418;7.286;2023-03-13T04:15:49;98229.84;;;10.09;87.00
52855;BME280;38719;51.418;7.286;2023-03-13T04:18:16;98230.38;;;10.14;87.46
52855;BME280;38719;51.418;7.286;2023-03-13T04:20:44;98237.50;;;10.00;87.51
52855;BME280;38719;51.418;7.286;2023-03-13T04:23:13;98231.75;;;10.07;87.63
52855;BME280;38719;51.418;7.286;2023-03-13T04:25:40;98228.78;;;9.98;87.95
52855;BME280;38719;51.418;7.286;2023-03-13T04:28:08;98226.88;;;10.00;88.22
52855;BME280;38719;51.418;7.286;2023-03-13T04:30:35;98227.41;;;10.06;88.69
52855;BME280;38719;51.418;7.286;2023-03-13T04:33:03;98217.28;;;10.11;88.05
52855;BME280;38719;51.418;7.286;2023-03-13T04:35:30;98218.78;;;10.15;88.19
52855;BME280;38719;51.418;7.286;2023-03-13T04:37:58;98203.53;;;10.17;88.74
52855;BME280;38719;51.418;7.286;2023-03-13T04:40:29;98192.19;;;10.15;88.61
52855;BME280;38719;51.418;7.286;2023-03-13T04:42:56;98199.66;;;10.10;89.01
52855;BME280;38719;51.418;7.286;2023-03-13T04:45:24;98193.66;;;10.19;88.82
52855;BME280;38719;51.418;7.286;2023-03-13T04:47:51;98191.31;;;10.14;89.46
52855;BME280;38719;51.418;7.286;2023-03-13T04:50:18;98204.41;;;10.18;88.80
52855;BME280;38719;51.418;7.286;2023-03-13T04:52:46;98196.84;;;10.24;88.56
52855;BME280;38719;51.418;7.286;2023-03-13T04:55:15;98211.09;;;10.23;88.75
52855;BME280;38719;51.418;7.286;2023-03-13T04:57:44;98198.53;;;10.25;88.58
52855;BME280;38719;51.418;7.286;2023-03-13T05:00:12;98184.94;;;10.17;89.19
52855;BME280;38719;51.418;7.286;2023-03-13T05:02:39;98184.97;;;10.04;90.32
52855;BME280;38719;51.418;7.286;2023-03-13T05:05:07;98175.56;;;10.24;89.25
52855;BME280;38719;51.418;7.286;2023-03-13T05:07:35;98180.22;;;10.33;88.83
52855;BME280;38719;51.418;7.286;2023-03-13T05:10:03;98178.41;;;10.34;88.87
52855;BME280;38719;51.418;7.286;2023-03-13T05:12:31;98182.09;;;10.44;88.45
52855;BME280;38719;51.418;7.286;2023-03-13T05:15:00;98186.59;;;10.44;87.82
52855;BME280;38719;51.418;7.286;2023-03-13T05:17:28;98172.53;;;10.42;88.83
52855;BME280;38719;51.418;7.286;2023-03-13T05:19:55;98180.66;;;10.40;88.26
52855;BME280;38719;51.418;7.286;2023-03-13T05:22:23;98182.22;;;10.43;88.93
52855;BME280;38719;51.418;7.286;2023-03-13T05:24:50;98170.53;;;10.70;88.30
52855;BME280;38719;51.418;7.286;2023-03-13T05:27:18;98166.50;;;10.64;87.75
52855;BME280;38719;51.418;7.286;2023-03-13T05:29:45;98170.28;;;10.73;87.76
52855;BME280;38719;51.418;7.286;2023-03-13T05:32:14;98162.44;;;10.71;87.55
52855;BME280;38719;51.418;7.286;2023-03-13T05:34:41;98172.91;;;10.61;88.16
52855;BME280;38719;51.418;7.286;2023-03-13T05:37:09;98172.75;;;10.76;87.78
52855;BME280;38719;51.418;7.286;2023-03-13T05:39:37;98173.94;;;10.72;88.26
52855;BME280;38719;51.418;7.286;2023-03-13T05:42:04;98169.56;;;10.71;88.74
52855;BME280;38719;51.418;7.286;2023-03-13T05:44:32;98167.25;;;10.90;87.41
52855;BME280;38719;51.418;7.286;2023-03-13T05:46:59;98165.69;;;10.99;87.18
52855;BME280;38719;51.418;7.286;2023-03-13T05:49:30;98159.53;;;11.10;87.22
52855;BME280;38719;51.418;7.286;2023-03-13T05:51:58;98170.56;;;11.05;87.47
52855;BME280;38719;51.418;7.286;2023-03-13T05:54:25;98169.09;;;11.01;87.91
52855;BME280;38719;51.418;7.286;2023-03-13T05:56:53;98170.44;;;11.07;88.38
52855;BME280;38719;51.418;7.286;2023-03-13T05:59:20;98169.94;;;11.02;88.09
52855;BME280;38719;51.418;7.286;2023-03-13T06:01:48;98180.84;;;11.10;88.54
52855;BME280;38719;51.418;7.286;2023-03-13T06:04:15;98180.84;;;11.10;88.50
52855;BME280;38719;51.418;7.286;2023-03-13T06:06:45;98160.69;;;11.19;88.55
52855;BME280;38719;51.418;7.286;2023-03-13T06:09:12;98161.88;;;11.26;87.41
52855;BME280;38719;51.418;7.286;2023-03-13T06:11:40;98154.97;;;11.23;88.07
52855;BME280;38719;51.418;7.286;2023-03-13T06:14:07;98152.34;;;11.35;87.06
52855;BME280;38719;51.418;7.286;2023-03-13T06:16:35;98156.22;;;11.31;86.09
52855;BME280;38719;51.418;7.286;2023-03-13T06:19:02;98147.72;;;11.25;86.54
52855;BME280;38719;51.418;7.286;2023-03-13T06:21:30;98162.41;;;11.31;87.49
52855;BME280;38719;51.418;7.286;2023-03-13T06:23:59;98149.94;;;11.43;87.66
52855;BME280;38719;51.418;7.286;2023-03-13T06:26:26;98154.66;;;11.39;86.66
52855;BME280;38719;51.418;7.286;2023-03-13T06:28:55;98155.25;;;11.32;87.88
52855;BME280;38719;51.418;7.286;2023-03-13T06:31:23;98144.69;;;11.19;87.47
52855;BME280;38719;51.418;7.286;2023-03-13T06:33:52;98139.25;;;11.32;86.97
52855;BME280;38719;51.418;7.286;2023-03-13T06:36:19;98142.44;;;11.48;87.35
52855;BME280;38719;51.418;7.286;2023-03-13T06:38:47;98149.34;;;11.51;86.61
52855;BME280;38719;51.418;7.286;2023-03-13T06:41:16;98156.34;;;11.29;87.29
52855;BME280;38719;51.418;7.286;2023-03-13T06:43:43;98149.44;;;11.38;87.13
52855;BME280;38719;51.418;7.286;2023-03-13T06:46:15;98153.09;;;11.48;86.87
52855;BME280;38719;51.418;7.286;2023-03-13T06:48:43;98154.81;;;11.60;86.49
52855;BME280;38719;51.418;7.286;2023-03-13T06:51:12;98145.00;;;11.61;85.64
52855;BME280;38719;51.418;7.286;2023-03-13T06:53:40;98156.75;;;11.58;85.89
52855;BME280;38719;51.418;7.286;2023-03-13T06:56:08;98150.94;;;11.65;86.44
52855;BME280;38719;51.418;7.286;2023-03-13T06:58:37;98161.63;;;11.76;85.56
52855;BME280;38719;51.418;7.286;2023-03-13T07:01:06;98167.56;;;11.80;85.88
52855;BME280;38719;51.418;7.286;2023-03-13T07:03:34;98176.53;;;11.78;84.49
52855;BME280;38719;51.418;7.286;2023-03-13T07:06:03;98167.94;;;11.98;84.29
52855;BME280;38719;51.418;7.286;2023-03-13T07:08:32;98169.88;;;11.96;84.11
52855;BME280;38719;51.418;7.286;2023-03-13T07:11:01;98169.41;;;11.90;83.57
52855;BME280;38719;51.418;7.286;2023-03-13T07:13:29;98166.94;;;11.87;84.75
52855;BME280;38719;51.418;7.286;2023-03-13T07:16:00;98174.94;;;11.76;84.75
52855;BME280;38719;51.418;7.286;2023-03-13T07:18:30;98178.72;;;11.85;84.58
52855;BME280;38719;51.418;7.286;2023-03-13T07:20:59;98154.25;;;12.02;83.50
52855;BME280;38719;51.418;7.286;2023-03-13T07:23:28;98152.66;;;11.88;84.13
52855;BME280;38719;51.418;7.286;2023-03-13T07:25:57;98157.72;;;11.91;83.83
52855;BME280;38719;51.418;7.286;2023-03-13T07:28:26;98156.19;;;12.00;83.74
52855;BME280;38719;51.418;7.286;2023-03-13T07:30:54;98141.41;;;11.96;83.48
52855;BME280;38719;51.418;7.286;2023-03-13T07:33:23;98150.00;;;12.00;83.88
52855;BME280;38719;51.418;7.286;2023-03-13T07:35:51;98143.94;;;12.09;83.09
52855;BME280;38719;51.418;7.286;2023-03-13T07:38:21;98142.69;;;12.24;82.53
52855;BME280;38719;51.418;7.286;2023-03-13T07:40:48;98136.13;;;12.40;81.39
52855;BME280;38719;51.418;7.286;2023-03-13T07:43:17;98147.41;;;12.32;81.42
52855;BME280;38719;51.418;7.286;2023-03-13T07:45:54;98136.13;;;12.40;81.74
52855;BME280;38719;51.418;7.286;2023-03-13T07:48:27;98131.03;;;12.37;81.52
52855;BME280;38719;51.418;7.286;2023-03-13T07:50:55;98130.06;;;12.38;80.82
52855;BME280;38719;51.418;7.286;2023-03-13T07:53:23;98132.97;;;12.35;81.05
52855;BME280;38719;51.418;7.286;2023-03-13T07:55:55;98130.69;;;12.30;81.37
52855;BME280;38719;51.418;7.286;2023-03-13T07:58:23;98130.28;;;12.46;79.94
52855;BME280;38719;51.418;7.286;2023-03-13T08:00:51;98108.47;;;12.30;80.56
52855;BME280;38719;51.418;7.286;2023-03-13T08:03:19;98108.94;;;12.46;80.58
52855;BME280;38719;51.418;7.286;2023-03-13T08:05:56;98101.84;;;12.56;78.98
52855;BME280;38719;51.418;7.286;2023-03-13T08:08:24;98114.44;;;12.66;78.16
52855;BME280;38719;51.418;7.286;2023-03-13T08:10:51;98120.53;;;12.56;78.92
52855;BME280;38719;51.418;7.286;2023-03-13T08:13:19;98115.84;;;12.49;79.96
52855;BME280;38719;51.418;7.286;2023-03-13T08:15:46;98108.19;;;12.77;79.00
52855;BME280;38719;51.418;7.286;2023-03-13T08:18:14;98089.13;;;12.81;77.30
52855;BME280;38719;51.418;7.286;2023-03-13T08:20:41;98097.34;;;12.57;78.74
52855;BME280;38719;51.418;7.286;2023-03-13T08:23:12;98114.56;;;12.64;77.80
52855;BME280;38719;51.418;7.286;2023-03-13T08:25:39;98094.09;;;12.53;78.58
52855;BME280;38719;51.418;7.286;2023-03-13T08:28:07;98110.97;;;12.54;77.74
52855;BME280;38719;51.418;7.286;2023-03-13T08:30:36;98102.41;;;12.71;77.92
52855;BME280;38719;51.418;7.286;2023-03-13T08:33:03;98112.63;;;12.66;77.46
52855;BME280;38719;51.418;7.286;2023-03-13T08:35:33;98096.97;;;12.62;78.58
52855;BME280;38719;51.418;7.286;2023-03-13T08:38:00;98117.59;;;12.71;78.11
52855;BME280;38719;51.418;7.286;2023-03-13T08:40:30;98094.75;;;12.67;77.98
52855;BME280;38719;51.418;7.286;2023-03-13T08:42:57;98098.31;;;12.88;76.97
52855;BME280;38719;51.418;7.286;2023-03-13T08:45:25;98108.78;;;12.80;77.02
52855;BME280;38719;51.418;7.286;2023-03-13T08:47:52;98101.94;;;12.66;78.11
52855;BME280;38719;51.418;7.286;2023-03-13T08:50:20;98120.81;;;12.74;77.43
52855;BME280;38719;51.418;7.286;2023-03-13T08:52:47;98134.75;;;12.89;76.46
52855;BME280;38719;51.418;7.286;2023-03-13T08:55:15;98126.81;;;12.67;77.80
52855;BME280;38719;51.418;7.286;2023-03-13T08:57:44;98123.63;;;12.73;77.81
52855;BME280;38719;51.418;7.286;2023-03-13T09:00:12;98127.63;;;12.79;77.62
52855;BME280;38719;51.418;7.286;2023-03-13T09:02:40;98122.03;;;13.03;77.01
52855;BME280;38719;51.418;7.286;2023-03-13T09:05:08;98115.25;;;12.99;77.17
52855;BME280;38719;51.418;7.286;2023-03-13T09:07:36;98122.16;;;13.01;76.78
52855;BME280;38719;51.418;7.286;2023-03-13T09:10:04;98120.44;;;12.79;77.69
52855;BME280;38719;51.418;7.286;2023-03-13T09:12:32;98118.50;;;12.81;76.94
52855;BME280;38719;51.418;7.286;2023-03-13T09:15:01;98123.97;;;12.80;77.71
52855;BME280;38719;51.418;7.286;2023-03-13T09:17:28;98125.22;;;12.97;76.75
52855;BME280;38719;51.418;7.286;2023-03-13T09:19:56;98130.56;;;12.97;77.92
52855;BME280;38719;51.418;7.286;2023-03-13T09:22:26;98122.44;;;13.19;77.04
52855;BME280;38719;51.418;7.286;2023-03-13T09:24:54;98118.88;;;13.30;76.29
52855;BME280;38719;51.418;7.286;2023-03-13T09:27:21;98113.00;;;13.36;76.31
52855;BME280;38719;51.418;7.286;2023-03-13T09:29:49;98105.75;;;13.48;75.70
52855;BME280;38719;51.418;7.286;2023-03-13T09:32:18;98099.88;;;13.54;75.74
52855;BME280;38719;51.418;7.286;2023-03-13T09:34:46;98096.84;;;13.69;74.95
52855;BME280;38719;51.418;7.286;2023-03-13T09:37:14;98109.84;;;13.52;76.18
52855;BME280;38719;51.418;7.286;2023-03-13T09:39:41;98111.38;;;13.45;76.69
52855;BME280;38719;51.418;7.286;2023-03-13T09:42:12;98098.59;;;13.49;76.19
52855;BME280;38719;51.418;7.286;2023-03-13T09:44:45;98088.38;;;13.64;77.07
52855;BME280;38719;51.418;7.286;2023-03-13T09:47:21;98091.22;;;13.72;77.69
52855;BME280;38719;51.418;7.286;2023-03-13T09:49:53;98089.75;;;13.58;77.46
52855;BME280;38719;51.418;7.286;2023-03-13T09:52:24;98085.09;;;13.50;78.02
52855;BME280;38719;51.418;7.286;2023-03-13T09:54:55;98085.28;;;13.68;78.05
52855;BME280;38719;51.418;7.286;2023-03-13T09:57:29;98078.09;;;13.59;78.75
52855;BME280;38719;51.418;7.286;2023-03-13T10:00:02;98074.63;;;13.78;78.38
52855;BME280;38719;51.418;7.286;2023-03-13T10:02:34;98071.69;;;13.81;77.02
52855;BME280;38719;51.418;7.286;2023-03-13T10:05:08;98070.34;;;13.66;78.02
52855;BME280;38719;51.418;7.286;2023-03-13T10:07:38;98075.31;;;13.70;77.50
52855;BME280;38719;51.418;7.286;2023-03-13T10:10:11;98054.88;;;13.69;77.11
52855;BME280;38719;51.418;7.286;2023-03-13T10:12:43;98074.78;;;13.46;79.11
52855;BME280;38719;51.418;7.286;2023-03-13T10:15:33;98067.06;;;13.52;78.64
52855;BME280;38719;51.418;7.286;2023-03-13T10:18:13;98046.22;;;13.46;78.85
52855;BME280;38719;51.418;7.286;2023-03-13T10:20:42;98045.63;;;13.74;77.61
52855;BME280;38719;51.418;7.286;2023-03-13T10:23:15;98061.06;;;14.01;77.28
52855;BME280;38719;51.418;7.286;2023-03-13T10:25:45;98044.97;;;13.91;76.39
52855;BME280;38719;51.418;7.286;2023-03-13T10:28:14;98036.28;;;14.09;75.98
52855;BME280;38719;51.418;7.286;2023-03-13T10:30:46;98039.22;;;14.15;74.41
52855;BME280;38719;51.418;7.286;2023-03-13T10:33:24;98046.13;;;14.08;74.63
52855;BME280;38719;51.418;7.286;2023-03-13T10:36:04;98045.00;;;14.21;74.05
52855;BME280;38719;51.418;7.286;2023-03-13T10:38:34;98034.19;;;14.22;73.98
52855;BME280;38719;51.418;7.286;2023-03-13T10:41:19;98034.88;;;14.24;73.62
52855;BME280;38719;51.418;7.286;2023-03-13T10:43:51;98010.50;;;14.27;73.10
52855;BME280;38719;51.418;7.286;2023-03-13T10:46:27;98025.31;;;14.41;72.51
52855;BME280;38719;51.418;7.286;2023-03-13T10:48:59;98024.59;;;14.39;73.06
52855;BME280;38719;51.418;7.286;2023-03-13T10:51:33;97999.69;;;14.68;71.27
52855;BME280;38719;51.418;7.286;2023-03-13T10:54:12;98011.50;;;14.46;71.57
52855;BME280;38719;51.418;7.286;2023-03-13T10:56:40;98009.81;;;14.55;70.76
52855;BME280;38719;51.418;7.286;2023-03-13T10:59:19;98009.53;;;14.58;71.12
52855;BME280;38719;51.418;7.286;2023-03-13T11:01:49;98005.00;;;14.48;70.97
52855;BME280;38719;51.418;7.286;2023-03-13T11:04:25;98009.09;;;14.72;70.66
52855;BME280;38719;51.418;7.286;2023-03-13T11:07:00;97976.81;;;14.64;70.67
52855;BME280;38719;51.418;7.286;2023-03-13T11:09:28;97997.72;;;14.70;70.19
52855;BME280;38719;51.418;7.286;2023-03-13T11:12:02;97970.72;;;14.91;70.05
52855;BME280;38719;51.418;7.286;2023-03-13T11:14:30;97978.56;;;15.12;69.36
52855;BME280;38719;51.418;7.286;2023-03-13T11:17:02;97982.50;;;15.08;69.45
52855;BME280;38719;51.418;7.286;2023-03-13T11:19:42;97977.47;;;15.05;69.00
52855;BME280;38719;51.418;7.286;2023-03-13T11:22:36;97973.38;;;15.01;68.13
52855;BME280;38719;51.418;7.286;2023-03-13T11:25:18;97983.81;;;15.04;68.68
52855;BME280;38719;51.418;7.286;2023-03-13T11:27:54;97956.22;;;15.22;68.57
52855;BME280;38719;51.418;7.286;2023-03-13T11:30:44;97962.66;;;15.39;68.07
52855;BME280;38719;51.418;7.286;2023-03-13T11:33:23;97955.41;;;15.21;67.75
52855;BME280;38719;51.418;7.286;2023-03-13T11:36:00;97962.53;;;15.30;68.60
52855;BME280;38719;51.418;7.286;2023-03-13T11:38:32;97941.16;;;15.48;67.90
52855;BME280;38719;51.418;7.286;2023-03-13T11:41:09;97950.66;;;15.33;67.97
52855;BME280;38719;51.418;7.286;2023-03-13T11:43:53;97942.84;;;15.50;67.37
52855;BME280;38719;51.418;7.286;2023-03-13T11:46:42;97957.31;;;15.29;67.32
52855;BME280;38719;51.418;7.286;2023-03-13T11:49:27;97924.75;;;15.52;66.56
52855;BME280;38719;51.418;7.286;2023-03-13T11:52:08;97936.88;;;15.56;66.17
52855;BME280;38719;51.418;7.286;2023-03-13T11:54:47;97935.50;;;15.42;66.32
52855;BME280;38719;51.418;7.286;2023-03-13T11:57:23;97917.75;;;15.41;65.94
52855;BME280;38719;51.418;7.286;2023-03-13T12:00:08;97932.59;;;15.35;66.38
52855;BME280;38719;51.418;7.286;2023-03-13T12:02:46;97912.44;;;15.31;66.31
52855;BME280;38719;51.418;7.286;2023-03-13T12:05:18;97911.94;;;15.45;65.98
52855;BME280;38719;51.418;7.286;2023-03-13T12:07:52;97896.03;;;15.62;64.87
52855;BME280;38719;51.418;7.286;2023-03-13T12:10:26;97903.59;;;15.48;64.89
52855;BME280;38719;51.418;7.286;2023-03-13T12:13:01;97899.94;;;15.50;64.67
52855;BME280;38719;51.418;7.286;2023-03-13T12:15:33;97899.66;;;15.71;64.75
52855;BME280;38719;51.418;7.286;2023-03-13T12:18:08;97912.34;;;15.97;63.23
52855;BME280;38719;51.418;7.286;2023-03-13T12:20:43;97886.50;;;15.68;64.55
52855;BME280;38719;51.418;7.286;2023-03-13T12:23:25;97892.47;;;15.89;63.71
52855;BME280;38719;51.418;7.286;2023-03-13T12:25:59;97905.16;;;15.69;64.68
52855;BME280;38719;51.418;7.286;2023-03-13T12:28:34;97890.19;;;15.48;64.63
52855;BME280;38719;51.418;7.286;2023-03-13T12:31:10;97885.63;;;15.95;63.07
52855;BME280;38719;51.418;7.286;2023-03-13T12:33:43;97893.22;;;16.18;62.35
52855;BME280;38719;51.418;7.286;2023-03-13T12:36:17;97878.13;;;16.17;62.43
52855;BME280;38719;51.418;7.286;2023-03-13T12:38:51;97881.03;;;16.05;61.24
52855;BME280;38719;51.418;7.286;2023-03-13T12:41:23;97880.50;;;15.84;63.05
52855;BME280;38719;51.418;7.286;2023-03-13T12:43:53;97890.31;;;16.11;61.79
52855;BME280;38719;51.418;7.286;2023-03-13T12:46:45;97888.53;;;16.20;61.64
52855;BME280;38719;51.418;7.286;2023-03-13T12:49:31;97879.88;;;15.90;63.08
52855;BME280;38719;51.418;7.286;2023-03-13T12:52:44;97874.69;;;16.06;62.54
52855;BME280;38719;51.418;7.286;2023-03-13T12:58:28;97866.19;;;16.37;61.56
52855;BME280;38719;51.418;7.286;2023-03-13T13:01:01;97860.69;;;16.21;61.74
52855;BME280;38719;51.418;7.286;2023-03-13T13:03:32;97856.53;;;16.26;61.94
52855;BME280;38719;51.418;7.286;2023-03-13T13:06:06;97861.53;;;16.21;62.23
52855;BME280;38719;51.418;7.286;2023-03-13T13:08:38;97854.97;;;15.98;62.87
52855;BME280;38719;51.418;7.286;2023-03-13T13:11:34;97847.84;;;16.06;62.72
52855;BME280;38719;51.418;7.286;2023-03-13T13:17:24;97840.41;;;16.00;61.38
52855;BME280;38719;51.418;7.286;2023-03-13T13:19:54;97837.84;;;15.99;61.73
52855;BME280;38719;51.418;7.286;2023-03-13T13:22:44;97831.09;;;15.76;62.16
52855;BME280;38719;51.418;7.286;2023-03-13T13:25:32;97827.38;;;15.87;62.37
52855;BME280;38719;51.418;7.286;2023-03-13T13:28:21;97818.69;;;16.11;60.94